Delta Cathryn — WDE9621 — position and weather

sailwx.info

Track history (hours):
 
Tides and Currents Weather Stations Pressure Air Temp Water Temp Dewpoint Dewpoint Depression Visibility Wind Speed Wind Dir Waves Ship Positions

Delta Cathryn

Owner: BAYDELTA MARITIME, SAN FRANCISCO, CA. More information available from US FCC via Universal Licensing System and Coast Guard Vessel Documentation Center.

Last reported at 2018-Jan-23 19:05 UTC. Time now 2018-Jan-24 01:41 UTC.
Position N 38°02' W 122°08'.

Length 30 m.

Type: Other ship. MMSI: 367419340.

Date/timePositionNaut miles runAvg speedWind from/ knotsBaromVisibWave heightAir tempDewpointWater temp
2018-Jan-23 19:05N 38°02' W 122°08'0 0.1
2018-Jan-23 19:00N 38°02' W 122°08'0 0.0
2018-Jan-23 18:30N 38°02' W 122°08'3 4.1
2018-Jan-23 17:45N 38°03' W 122°11'2 8.1
2018-Jan-23 17:29N 38°04' W 122°14'0 0.6
2018-Jan-23 16:57N 38°04' W 122°14'0 0.1
2018-Jan-23 15:22N 38°03' W 122°15'0 0.0
2018-Jan-23 14:55N 38°03' W 122°15'0 0.1
2018-Jan-23 14:30N 38°03' W 122°15'0 0.0
2018-Jan-23 14:00N 38°03' W 122°15'0 0.8
2018-Jan-23 13:30N 38°04' W 122°14'4 7.3
2018-Jan-23 12:59N 38°02' W 122°10'1 0.2
2018-Jan-23 07:57N 38°03' W 122°11'3 1.0
2018-Jan-23 04:55N 38°03' W 122°15'0 0.5
2018-Jan-23 04:30N 38°04' W 122°14'0 0.0
2018-Jan-23 03:57N 38°04' W 122°14'0 0.0
2018-Jan-23 03:23N 38°04' W 122°14'0 0.1
2018-Jan-23 02:53N 38°04' W 122°15'1 1.3
2018-Jan-23 02:28N 38°04' W 122°15'0 0.2
2018-Jan-23 00:37N 38°03' W 122°15'1 4.4
2018-Jan-23 00:27N 38°04' W 122°14'4 1.4
2018-Jan-22 21:17N 38°02' W 122°08'0 1.4
2018-Jan-22 21:00N 38°02' W 122°08'2 0.4
2018-Jan-22 15:15N 38°03' W 122°11'2 6.8
2018-Jan-22 15:00N 38°03' W 122°12'3 5.1
2018-Jan-22 14:30N 38°04' W 122°16'0 0.2
2018-Jan-22 13:59N 38°03' W 122°16'3 6.6
2018-Jan-22 13:30N 38°03' W 122°12'1 0.1
2018-Jan-21 23:28N 38°03' W 122°11'4 8.5
2018-Jan-21 23:00N 38°03' W 122°16'0 0.0
2018-Jan-21 22:30N 38°03' W 122°16'0 0.0
2018-Jan-21 22:00N 38°03' W 122°16'0 0.2
2018-Jan-21 21:30N 38°04' W 122°16'2 3.9
2018-Jan-21 21:00N 38°03' W 122°18'510.0
2018-Jan-21 20:30N 38°01' W 122°24'611.9
2018-Jan-21 20:00N 37°55' W 122°26'0 0.6
2018-Jan-21 19:30N 37°55' W 122°25'1 1.6
2018-Jan-21 19:00N 37°56' W 122°25'1 1.5
2018-Jan-21 18:30N 37°56' W 122°26'5 9.3
2018-Jan-21 18:00N 38°01' W 122°24'5 9.3
2018-Jan-21 17:30N 38°03' W 122°19'9 1.2
2018-Jan-21 10:25N 38°02' W 122°08'3 2.9
2018-Jan-21 09:29N 38°03' W 122°11'5 8.2
2018-Jan-21 08:55N 38°03' W 122°17'1 2.6
2018-Jan-21 08:30N 38°03' W 122°18'2 3.0
2018-Jan-21 07:59N 38°03' W 122°20'2 4.2
2018-Jan-21 07:30N 38°02' W 122°22'4 7.2
2018-Jan-21 07:00N 37°59' W 122°25'3 6.8
2018-Jan-21 06:30N 37°56' W 122°25'0 0.4
2018-Jan-21 06:00N 37°56' W 122°25'1 3.0
2018-Jan-21 05:31N 37°54' W 122°25'1 2.1
2018-Jan-21 05:00N 37°53' W 122°25'3 5.0
2018-Jan-21 04:30N 37°56' W 122°25'0 0.0
2018-Jan-21 04:00N 37°56' W 122°25'0 0.0
2018-Jan-21 03:30N 37°56' W 122°25'3 5.2
2018-Jan-21 03:00N 37°58' W 122°26'611.3
2018-Jan-21 02:30N 38°02' W 122°21'611.2
2018-Jan-21 01:59N 38°04' W 122°14'4 9.4
2018-Jan-21 01:30N 38°02' W 122°08'2 0.1
2018-Jan-20 02:48N 38°03' W 122°11'2 7.7
2018-Jan-20 02:30N 38°04' W 122°13'4 7.6
2018-Jan-20 02:00N 38°03' W 122°18'4 8.2
2018-Jan-20 01:27N 38°01' W 122°23'4 8.0
2018-Jan-20 01:00N 37°58' W 122°26'3 5.2
2018-Jan-20 00:30N 37°56' W 122°25'0 0.0
2018-Jan-20 00:00N 37°56' W 122°25'0 0.2
2018-Jan-19 23:30N 37°55' W 122°25'2 4.2
2018-Jan-19 23:00N 37°53' W 122°25'0 0.5
2018-Jan-19 22:30N 37°53' W 122°25'0 0.1
2018-Jan-19 22:00N 37°53' W 122°25'0 0.3
2018-Jan-19 21:30N 37°54' W 122°25'2 4.1
2018-Jan-19 21:00N 37°56' W 122°25'0 0.0
2018-Jan-19 20:30N 37°56' W 122°25'3 6.3
2018-Jan-19 19:58N 37°59' W 122°26'510.0
2018-Jan-19 19:30N 38°02' W 122°21'610.6
2018-Jan-19 18:58N 38°04' W 122°14'510.5
2018-Jan-19 18:30N 38°02' W 122°08'0 0.0
2018-Jan-19 14:58N 38°02' W 122°08'0 0.0
2018-Jan-19 14:30N 38°02' W 122°08'0 0.0
2018-Jan-19 12:59N 38°02' W 122°08'1 0.3
2018-Jan-19 10:57N 38°02' W 122°08'2 4.6
2018-Jan-19 10:25N 38°03' W 122°11'4 9.5
2018-Jan-19 09:58N 38°04' W 122°16'4 9.4
2018-Jan-19 09:30N 38°02' W 122°21'510.7
2018-Jan-19 09:00N 37°59' W 122°26'511.0
2018-Jan-19 08:30N 37°53' W 122°26'510.6
2018-Jan-19 08:00N 37°48' W 122°23'3 5.5
2018-Jan-19 07:30N 37°46' W 122°21'1 1.1
2018-Jan-19 07:00N 37°46' W 122°21'3 5.2
2018-Jan-19 06:30N 37°48' W 122°24'0 0.0
2018-Jan-19 06:00N 37°48' W 122°24'0 0.0
2018-Jan-19 05:30N 37°48' W 122°24'0 0.0
2018-Jan-19 05:00N 37°48' W 122°24'0 0.0
2018-Jan-19 04:30N 37°48' W 122°24'0 0.0
2018-Jan-19 04:00N 37°48' W 122°24'0 0.0
2018-Jan-19 03:30N 37°48' W 122°24'0 0.0
2018-Jan-19 03:00N 37°48' W 122°24'0 0.0
2018-Jan-19 02:30N 37°48' W 122°24'1 2.2
2018-Jan-19 02:00N 37°48' W 122°23'3 7.0
2018-Jan-19 01:30N 37°48' W 122°18'1 1.1
2018-Jan-19 01:01N 37°48' W 122°17'1 2.0
2018-Jan-19 00:30N 37°48' W 122°19'2 3.5
2018-Jan-19 00:00N 37°48' W 122°21'2 4.9
2018-Jan-18 23:30N 37°48' W 122°24'0 0.0
2018-Jan-18 23:00N 37°48' W 122°24'0 0.0
2018-Jan-18 22:30N 37°48' W 122°24'0 0.0
2018-Jan-18 22:00N 37°48' W 122°24'0 0.0
2018-Jan-18 21:30N 37°48' W 122°24'0 0.0
2018-Jan-18 21:00N 37°48' W 122°24'0 0.0
2018-Jan-18 20:30N 37°48' W 122°24'5 9.6
2018-Jan-18 20:00N 37°53' W 122°25'5 9.5
2018-Jan-18 19:30N 37°58' W 122°26'5 9.0
2018-Jan-18 18:59N 38°01' W 122°23'5 9.6
2018-Jan-18 18:29N 38°03' W 122°17'8 0.6
2018-Jan-18 04:55N 38°02' W 122°07'0 0.1
2018-Jan-18 04:29N 38°02' W 122°07'4 1.6
2018-Jan-18 02:08N 38°03' W 122°12'1 7.7
2018-Jan-18 01:57N 38°04' W 122°14'3 6.9
2018-Jan-18 01:27N 38°03' W 122°18'4 8.0
2018-Jan-18 00:58N 38°01' W 122°23'7 7.1
2018-Jan-18 00:00N 37°55' W 122°25'0 8.5
2018-Jan-17 23:57N 37°55' W 122°24'  
Track history (hours):
 
Tides and Currents Weather Stations Pressure Air Temp Water Temp Dewpoint Dewpoint Depression Visibility Wind Speed Wind Dir Waves Ship Positions

Delta Cathryn

Owner: BAYDELTA MARITIME, SAN FRANCISCO, CA. More information available from US FCC via Universal Licensing System and Coast Guard Vessel Documentation Center.

Last reported at 2018-Jan-23 19:05 UTC. Time now 2018-Jan-24 01:41 UTC.
Position N 38°02' W 122°08'.

Length 30 m.

Type: Other ship. MMSI: 367419340.

Date/timePositionNaut miles runAvg speedWind from/ knotsBaromVisibWave heightAir tempDewpointWater temp
2018-Jan-23 19:05N 38°02' W 122°08'0 0.1
2018-Jan-23 19:00N 38°02' W 122°08'0 0.0
2018-Jan-23 18:30N 38°02' W 122°08'3 4.1
2018-Jan-23 17:45N 38°03' W 122°11'2 8.1
2018-Jan-23 17:29N 38°04' W 122°14'0 0.6
2018-Jan-23 16:57N 38°04' W 122°14'0 0.1
2018-Jan-23 15:22N 38°03' W 122°15'0 0.0
2018-Jan-23 14:55N 38°03' W 122°15'0 0.1
2018-Jan-23 14:30N 38°03' W 122°15'0 0.0
2018-Jan-23 14:00N 38°03' W 122°15'0 0.8
2018-Jan-23 13:30N 38°04' W 122°14'4 7.3
2018-Jan-23 12:59N 38°02' W 122°10'1 0.2
2018-Jan-23 07:57N 38°03' W 122°11'3 1.0
2018-Jan-23 04:55N 38°03' W 122°15'0 0.5
2018-Jan-23 04:30N 38°04' W 122°14'0 0.0
2018-Jan-23 03:57N 38°04' W 122°14'0 0.0
2018-Jan-23 03:23N 38°04' W 122°14'0 0.1
2018-Jan-23 02:53N 38°04' W 122°15'1 1.3
2018-Jan-23 02:28N 38°04' W 122°15'0 0.2
2018-Jan-23 00:37N 38°03' W 122°15'1 4.4
2018-Jan-23 00:27N 38°04' W 122°14'4 1.4
2018-Jan-22 21:17N 38°02' W 122°08'0 1.4
2018-Jan-22 21:00N 38°02' W 122°08'2 0.4
2018-Jan-22 15:15N 38°03' W 122°11'2 6.8
2018-Jan-22 15:00N 38°03' W 122°12'3 5.1
2018-Jan-22 14:30N 38°04' W 122°16'0 0.2
2018-Jan-22 13:59N 38°03' W 122°16'3 6.6
2018-Jan-22 13:30N 38°03' W 122°12'1 0.1
2018-Jan-21 23:28N 38°03' W 122°11'4 8.5
2018-Jan-21 23:00N 38°03' W 122°16'0 0.0
2018-Jan-21 22:30N 38°03' W 122°16'0 0.0
2018-Jan-21 22:00N 38°03' W 122°16'0 0.2
2018-Jan-21 21:30N 38°04' W 122°16'2 3.9
2018-Jan-21 21:00N 38°03' W 122°18'510.0
2018-Jan-21 20:30N 38°01' W 122°24'611.9
2018-Jan-21 20:00N 37°55' W 122°26'0 0.6
2018-Jan-21 19:30N 37°55' W 122°25'1 1.6
2018-Jan-21 19:00N 37°56' W 122°25'1 1.5
2018-Jan-21 18:30N 37°56' W 122°26'5 9.3
2018-Jan-21 18:00N 38°01' W 122°24'5 9.3
2018-Jan-21 17:30N 38°03' W 122°19'9 1.2
2018-Jan-21 10:25N 38°02' W 122°08'3 2.9
2018-Jan-21 09:29N 38°03' W 122°11'5 8.2
2018-Jan-21 08:55N 38°03' W 122°17'1 2.6
2018-Jan-21 08:30N 38°03' W 122°18'2 3.0
2018-Jan-21 07:59N 38°03' W 122°20'2 4.2
2018-Jan-21 07:30N 38°02' W 122°22'4 7.2
2018-Jan-21 07:00N 37°59' W 122°25'3 6.8
2018-Jan-21 06:30N 37°56' W 122°25'0 0.4
2018-Jan-21 06:00N 37°56' W 122°25'1 3.0
2018-Jan-21 05:31N 37°54' W 122°25'1 2.1
2018-Jan-21 05:00N 37°53' W 122°25'3 5.0
2018-Jan-21 04:30N 37°56' W 122°25'0 0.0
2018-Jan-21 04:00N 37°56' W 122°25'0 0.0
2018-Jan-21 03:30N 37°56' W 122°25'3 5.2
2018-Jan-21 03:00N 37°58' W 122°26'611.3
2018-Jan-21 02:30N 38°02' W 122°21'611.2
2018-Jan-21 01:59N 38°04' W 122°14'4 9.4
2018-Jan-21 01:30N 38°02' W 122°08'2 0.1
2018-Jan-20 02:48N 38°03' W 122°11'2 7.7
2018-Jan-20 02:30N 38°04' W 122°13'4 7.6
2018-Jan-20 02:00N 38°03' W 122°18'4 8.2
2018-Jan-20 01:27N 38°01' W 122°23'4 8.0
2018-Jan-20 01:00N 37°58' W 122°26'3 5.2
2018-Jan-20 00:30N 37°56' W 122°25'0 0.0
2018-Jan-20 00:00N 37°56' W 122°25'0 0.2
2018-Jan-19 23:30N 37°55' W 122°25'2 4.2
2018-Jan-19 23:00N 37°53' W 122°25'0 0.5
2018-Jan-19 22:30N 37°53' W 122°25'0 0.1
2018-Jan-19 22:00N 37°53' W 122°25'0 0.3
2018-Jan-19 21:30N 37°54' W 122°25'2 4.1
2018-Jan-19 21:00N 37°56' W 122°25'0 0.0
2018-Jan-19 20:30N 37°56' W 122°25'3 6.3
2018-Jan-19 19:58N 37°59' W 122°26'510.0
2018-Jan-19 19:30N 38°02' W 122°21'610.6
2018-Jan-19 18:58N 38°04' W 122°14'510.5
2018-Jan-19 18:30N 38°02' W 122°08'0 0.0
2018-Jan-19 14:58N 38°02' W 122°08'0 0.0
2018-Jan-19 14:30N 38°02' W 122°08'0 0.0
2018-Jan-19 12:59N 38°02' W 122°08'1 0.3
2018-Jan-19 10:57N 38°02' W 122°08'2 4.6
2018-Jan-19 10:25N 38°03' W 122°11'4 9.5
2018-Jan-19 09:58N 38°04' W 122°16'4 9.4
2018-Jan-19 09:30N 38°02' W 122°21'510.7
2018-Jan-19 09:00N 37°59' W 122°26'511.0
2018-Jan-19 08:30N 37°53' W 122°26'510.6
2018-Jan-19 08:00N 37°48' W 122°23'3 5.5
2018-Jan-19 07:30N 37°46' W 122°21'1 1.1
2018-Jan-19 07:00N 37°46' W 122°21'3 5.2
2018-Jan-19 06:30N 37°48' W 122°24'0 0.0
2018-Jan-19 06:00N 37°48' W 122°24'0 0.0
2018-Jan-19 05:30N 37°48' W 122°24'0 0.0
2018-Jan-19 05:00N 37°48' W 122°24'0 0.0
2018-Jan-19 04:30N 37°48' W 122°24'0 0.0
2018-Jan-19 04:00N 37°48' W 122°24'0 0.0
2018-Jan-19 03:30N 37°48' W 122°24'0 0.0
2018-Jan-19 03:00N 37°48' W 122°24'0 0.0
2018-Jan-19 02:30N 37°48' W 122°24'1 2.2
2018-Jan-19 02:00N 37°48' W 122°23'3 7.0
2018-Jan-19 01:30N 37°48' W 122°18'1 1.1
2018-Jan-19 01:01N 37°48' W 122°17'1 2.0
2018-Jan-19 00:30N 37°48' W 122°19'2 3.5
2018-Jan-19 00:00N 37°48' W 122°21'2 4.9
2018-Jan-18 23:30N 37°48' W 122°24'0 0.0
2018-Jan-18 23:00N 37°48' W 122°24'0 0.0
2018-Jan-18 22:30N 37°48' W 122°24'0 0.0
2018-Jan-18 22:00N 37°48' W 122°24'0 0.0
2018-Jan-18 21:30N 37°48' W 122°24'0 0.0
2018-Jan-18 21:00N 37°48' W 122°24'0 0.0
2018-Jan-18 20:30N 37°48' W 122°24'5 9.6
2018-Jan-18 20:00N 37°53' W 122°25'5 9.5
2018-Jan-18 19:30N 37°58' W 122°26'5 9.0
2018-Jan-18 18:59N 38°01' W 122°23'5 9.6
2018-Jan-18 18:29N 38°03' W 122°17'8 0.6
2018-Jan-18 04:55N 38°02' W 122°07'0 0.1
2018-Jan-18 04:29N 38°02' W 122°07'4 1.6
2018-Jan-18 02:08N 38°03' W 122°12'1 7.7
2018-Jan-18 01:57N 38°04' W 122°14'3 6.9
2018-Jan-18 01:27N 38°03' W 122°18'4 8.0
2018-Jan-18 00:58N 38°01' W 122°23'7 7.1
2018-Jan-18 00:00N 37°55' W 122°25'0 8.5
2018-Jan-17 23:57N 37°55' W 122°24'  

Dump ship's entire track history